createdAt,value
2022-09-04T00:01:56.032Z,17.60
2022-09-04T00:04:30.580Z,17.60
2022-09-04T00:07:00.836Z,17.60
2022-09-04T00:09:33.755Z,17.60
2022-09-04T00:12:09.884Z,17.60
2022-09-04T00:14:37.507Z,17.60
2022-09-04T00:17:22.646Z,17.50
2022-09-04T00:19:56.490Z,17.50
2022-09-04T00:22:26.517Z,17.40
2022-09-04T00:25:03.527Z,17.50
2022-09-04T00:27:32.954Z,17.60
2022-09-04T00:30:07.599Z,17.40
2022-09-04T00:32:35.071Z,17.50
2022-09-04T00:35:07.869Z,17.40
2022-09-04T00:37:38.163Z,17.30
2022-09-04T00:40:14.323Z,17.40
2022-09-04T00:42:44.361Z,17.40
2022-09-04T00:45:30.392Z,17.30
2022-09-04T00:48:03.165Z,17.30
2022-09-04T00:50:46.519Z,17.20
2022-09-04T00:53:26.131Z,17.30
2022-09-04T00:56:02.732Z,17.30
2022-09-04T00:58:52.700Z,17.20
2022-09-04T01:01:22.260Z,17.20
2022-09-04T01:04:01.756Z,17.20
2022-09-04T01:06:35.736Z,17.20
2022-09-04T01:09:22.614Z,17.20
2022-09-04T01:11:55.644Z,17.20
2022-09-04T01:14:40.223Z,17.20
2022-09-04T01:17:09.409Z,17.20
2022-09-04T01:19:47.070Z,16.50
2022-09-04T01:22:33.290Z,17.20
2022-09-04T01:25:08.654Z,17.20
2022-09-04T01:27:56.594Z,17.20
2022-09-04T01:30:23.855Z,17.20
2022-09-04T01:33:20.116Z,17.30
2022-09-04T01:36:06.984Z,17.30
2022-09-04T01:38:42.942Z,17.30
2022-09-04T01:41:18.582Z,17.30
2022-09-04T01:43:45.705Z,17.30
2022-09-04T01:46:12.815Z,17.30
2022-09-04T01:48:42.833Z,17.30
2022-09-04T01:51:14.239Z,17.30
2022-09-04T01:53:43.868Z,17.30
2022-09-04T01:56:24.594Z,17.30
2022-09-04T01:59:03.235Z,17.30
2022-09-04T02:01:30.435Z,17.30
2022-09-04T02:04:08.200Z,17.30
2022-09-04T02:06:51.712Z,17.30
2022-09-04T02:09:24.602Z,17.30
2022-09-04T02:11:59.686Z,17.30
2022-09-04T02:14:27.458Z,17.30
2022-09-04T02:17:09.477Z,17.30
2022-09-04T02:19:41.677Z,17.30
2022-09-04T02:22:24.176Z,17.30
2022-09-04T02:24:54.089Z,17.20
2022-09-04T02:27:39.223Z,17.30
2022-09-04T02:30:11.873Z,17.20
2022-09-04T02:32:57.934Z,17.20
2022-09-04T02:35:30.964Z,17.00
2022-09-04T02:38:06.952Z,17.30
2022-09-04T02:40:43.161Z,17.30
2022-09-04T02:43:28.305Z,17.40
2022-09-04T02:46:02.037Z,17.30
2022-09-04T02:48:35.128Z,17.40
2022-09-04T02:51:20.854Z,17.30
2022-09-04T02:53:53.944Z,17.40
2022-09-04T02:56:25.721Z,17.40
2022-09-04T02:59:03.407Z,17.50
2022-09-04T03:01:35.140Z,17.30
2022-09-04T03:04:08.085Z,17.30
2022-09-04T03:06:44.110Z,17.30
2022-09-04T03:09:37.304Z,17.40
2022-09-04T03:12:26.562Z,17.40
2022-09-04T03:15:02.848Z,17.50
2022-09-04T03:17:34.881Z,17.40
2022-09-04T03:20:11.902Z,17.50
2022-09-04T03:22:45.283Z,17.40
2022-09-04T03:25:30.978Z,17.40
2022-09-04T03:27:58.129Z,17.90
2022-09-04T03:30:25.515Z,17.40
2022-09-04T03:32:55.730Z,17.40
2022-09-04T03:35:42.455Z,17.40
2022-09-04T03:38:20.569Z,17.50
2022-09-04T03:40:50.504Z,16.90
2022-09-04T03:43:35.793Z,17.40
2022-09-04T03:46:03.715Z,17.40
2022-09-04T03:48:49.425Z,17.40
2022-09-04T03:51:25.713Z,17.40
2022-09-04T03:53:56.405Z,17.40
2022-09-04T03:56:32.448Z,17.30
2022-09-04T03:59:04.942Z,17.50
2022-09-04T04:01:39.966Z,17.40
2022-09-04T04:04:09.876Z,17.30
2022-09-04T04:06:43.236Z,17.30
2022-09-04T04:09:16.342Z,17.30
2022-09-04T04:12:06.473Z,17.40
2022-09-04T04:14:52.202Z,17.30
2022-09-04T04:17:37.771Z,18.40
2022-09-04T04:20:11.004Z,17.30
2022-09-04T04:22:56.183Z,17.30
2022-09-04T04:25:52.493Z,17.30
2022-09-04T04:28:20.128Z,17.20
2022-09-04T04:30:49.999Z,17.30
2022-09-04T04:33:26.180Z,17.30
2022-09-04T04:36:13.215Z,17.30
2022-09-04T04:38:57.903Z,17.30
2022-09-04T04:41:53.860Z,17.20
2022-09-04T04:44:45.194Z,17.20
2022-09-04T04:47:35.164Z,17.20
2022-09-04T04:50:16.209Z,17.20
2022-09-04T04:52:46.416Z,17.20
2022-09-04T04:55:21.426Z,17.20
2022-09-04T04:57:54.306Z,17.20
2022-09-04T05:00:27.486Z,17.20
2022-09-04T05:03:15.453Z,16.60
2022-09-04T05:06:01.227Z,17.20
2022-09-04T05:08:37.416Z,17.10
2022-09-04T05:11:22.841Z,17.20
2022-09-04T05:14:03.265Z,17.10
2022-09-04T05:16:33.170Z,17.10
2022-09-04T05:19:07.145Z,17.10
2022-09-04T05:21:43.470Z,17.10
2022-09-04T05:24:10.549Z,17.20
2022-09-04T05:26:56.308Z,17.10
2022-09-04T05:29:32.704Z,17.20
2022-09-04T05:32:23.327Z,17.10
2022-09-04T05:34:57.380Z,17.10
2022-09-04T05:37:42.616Z,17.20
2022-09-04T05:40:22.489Z,17.20
2022-09-04T05:43:08.198Z,17.20
2022-09-04T05:45:43.884Z,17.10
2022-09-04T05:48:17.220Z,17.30
2022-09-04T05:50:47.101Z,17.20
2022-09-04T05:53:24.542Z,17.20
2022-09-04T05:56:10.080Z,17.30
2022-09-04T05:58:47.700Z,17.30
2022-09-04T06:01:23.249Z,17.30
2022-09-04T06:03:59.804Z,17.30
2022-09-04T06:06:26.900Z,17.30
2022-09-04T06:09:03.165Z,17.30
2022-09-04T06:11:36.022Z,17.30
2022-09-04T06:14:03.149Z,17.40
2022-09-04T06:16:39.275Z,17.40
2022-09-04T06:19:24.977Z,17.40
2022-09-04T06:22:04.297Z,17.40
2022-09-04T06:24:44.956Z,17.60
2022-09-04T06:27:23.155Z,17.50
2022-09-04T06:30:10.541Z,17.50
2022-09-04T06:32:56.141Z,17.60
2022-09-04T06:35:43.795Z,17.60
2022-09-04T06:38:10.904Z,17.70
2022-09-04T06:40:48.777Z,17.70
2022-09-04T06:43:22.686Z,17.70
2022-09-04T06:46:13.882Z,17.80
2022-09-04T06:48:49.810Z,17.80
2022-09-04T06:51:27.132Z,17.90
2022-09-04T06:53:57.138Z,17.90
2022-09-04T06:56:27.020Z,18.00
2022-09-04T06:59:14.634Z,18.20
2022-09-04T07:02:00.611Z,18.10
2022-09-04T07:04:46.454Z,18.20
2022-09-04T07:07:13.580Z,18.20
2022-09-04T07:09:43.929Z,18.20
2022-09-04T07:12:20.256Z,18.30
2022-09-04T07:15:06.871Z,18.40
2022-09-04T07:17:39.574Z,18.40
2022-09-04T07:20:07.668Z,18.50
2022-09-04T07:22:40.569Z,18.50
2022-09-04T07:25:22.354Z,18.60
2022-09-04T07:28:01.628Z,18.60
2022-09-04T07:30:33.020Z,18.60
2022-09-04T07:33:04.387Z,18.70
2022-09-04T07:35:31.725Z,18.70
2022-09-04T07:38:14.124Z,18.70
2022-09-04T07:40:47.658Z,19.40
2022-09-04T07:43:21.581Z,18.70
2022-09-04T07:45:58.955Z,18.70
2022-09-04T07:48:30.978Z,18.70
2022-09-04T07:51:10.242Z,18.80
2022-09-04T07:54:23.039Z,18.80
2022-09-04T07:56:54.676Z,18.80
2022-09-04T07:59:25.391Z,18.80
2022-09-04T08:01:58.611Z,18.80
2022-09-04T08:04:25.881Z,18.80
2022-09-04T08:06:53.182Z,18.80
2022-09-04T08:09:20.286Z,18.20
2022-09-04T08:11:53.123Z,19.00
2022-09-04T08:14:38.420Z,19.00
2022-09-04T08:17:25.436Z,19.00
2022-09-04T08:20:31.463Z,19.00
2022-09-04T08:23:02.403Z,19.10
2022-09-04T08:25:33.391Z,19.10
2022-09-04T08:28:06.615Z,19.20
2022-09-04T08:30:40.068Z,19.20
2022-09-04T08:33:23.993Z,19.20
2022-09-04T08:36:01.917Z,19.20
2022-09-04T08:38:38.223Z,19.30
2022-09-04T08:41:11.234Z,19.30
2022-09-04T08:43:50.713Z,19.40
2022-09-04T08:46:34.133Z,19.40
2022-09-04T08:49:20.079Z,19.50
2022-09-04T08:52:07.145Z,19.50
2022-09-04T08:54:50.593Z,19.60
2022-09-04T08:57:23.641Z,19.60
2022-09-04T08:59:50.744Z,19.60
2022-09-04T09:02:36.777Z,19.70
2022-09-04T09:05:17.190Z,19.70
2022-09-04T09:07:47.210Z,19.70
2022-09-04T09:10:29.784Z,19.70
2022-09-04T09:12:57.004Z,19.80
2022-09-04T09:15:24.080Z,19.80
2022-09-04T09:17:54.147Z,19.90
2022-09-04T09:20:24.453Z,20.00
2022-09-04T09:22:51.648Z,20.10
2022-09-04T09:25:23.096Z,20.10
2022-09-04T09:28:09.031Z,20.20
2022-09-04T09:30:51.423Z,20.30
2022-09-04T09:33:20.576Z,20.20
2022-09-04T09:35:55.681Z,19.70
2022-09-04T09:38:32.267Z,20.30
2022-09-04T09:41:02.515Z,20.30
2022-09-04T09:43:46.977Z,20.30
2022-09-04T09:46:21.186Z,20.40
2022-09-04T09:48:54.251Z,20.50
2022-09-04T09:51:30.391Z,20.50
2022-09-04T09:54:06.613Z,20.50
2022-09-04T09:56:33.706Z,20.50
2022-09-04T09:59:00.817Z,20.50
2022-09-04T10:01:31.149Z,20.60
2022-09-04T10:04:14.061Z,20.60
2022-09-04T10:07:00.360Z,20.60
2022-09-04T10:09:30.590Z,20.70
2022-09-04T10:12:16.474Z,20.80
2022-09-04T10:14:46.392Z,20.90
2022-09-04T10:17:17.075Z,20.90
2022-09-04T10:19:56.607Z,20.90
2022-09-04T10:22:23.719Z,20.90
2022-09-04T10:25:06.092Z,21.00
2022-09-04T10:27:38.566Z,21.00
2022-09-04T10:30:14.074Z,21.00
2022-09-04T10:32:59.689Z,21.00
2022-09-04T10:35:35.783Z,21.00
2022-09-04T10:38:06.063Z,21.00
2022-09-04T10:40:38.567Z,20.90
2022-09-04T10:43:26.636Z,21.00
2022-09-04T10:46:08.502Z,21.10
2022-09-04T10:48:58.426Z,21.10
2022-09-04T10:51:34.684Z,21.20
2022-09-04T10:54:08.045Z,21.30
2022-09-04T10:56:54.562Z,21.30
2022-09-04T10:59:27.836Z,21.30
2022-09-04T11:02:18.295Z,21.40
2022-09-04T11:05:08.740Z,21.40
2022-09-04T11:07:42.406Z,21.50
2022-09-04T11:10:28.981Z,21.50
2022-09-04T11:13:02.068Z,21.50
2022-09-04T11:15:45.197Z,21.50
2022-09-04T11:18:22.324Z,21.40
2022-09-04T11:21:12.156Z,21.40
2022-09-04T11:23:57.944Z,21.40
2022-09-04T11:26:47.361Z,21.50
2022-09-04T11:29:21.151Z,21.50
2022-09-04T11:31:57.421Z,21.60
2022-09-04T11:34:44.652Z,21.60
2022-09-04T11:37:11.734Z,21.60
2022-09-04T11:39:42.043Z,21.70
2022-09-04T11:42:28.249Z,21.70
2022-09-04T11:45:16.726Z,21.80
2022-09-04T11:48:10.293Z,21.80
2022-09-04T11:50:44.517Z,21.80
2022-09-04T11:53:14.340Z,21.90
2022-09-04T11:55:41.438Z,21.90
2022-09-04T11:58:28.350Z,21.90
2022-09-04T12:01:09.969Z,22.20
2022-09-04T12:03:40.876Z,22.10
2022-09-04T12:06:14.343Z,22.10
2022-09-04T12:08:57.833Z,21.20
2022-09-04T12:11:32.095Z,22.20
2022-09-04T12:14:02.255Z,22.70
2022-09-04T12:16:52.536Z,22.20
2022-09-04T12:19:21.254Z,22.30
2022-09-04T12:22:04.810Z,22.30
2022-09-04T12:24:55.294Z,22.50
2022-09-04T12:27:22.648Z,22.30
2022-09-04T12:29:50.580Z,22.20
2022-09-04T12:32:36.137Z,22.20
2022-09-04T12:35:21.785Z,22.20
2022-09-04T12:37:51.674Z,22.10
2022-09-04T12:40:30.818Z,22.20
2022-09-04T12:43:03.820Z,22.10
2022-09-04T12:45:47.930Z,22.20
2022-09-04T12:48:34.552Z,22.10
2022-09-04T12:51:16.749Z,22.20
2022-09-04T12:54:02.689Z,22.20
2022-09-04T12:56:43.975Z,22.20
2022-09-04T12:59:23.492Z,22.30
2022-09-04T13:01:50.889Z,22.40
2022-09-04T13:04:21.700Z,22.40
2022-09-04T13:07:06.970Z,22.40
2022-09-04T13:09:56.814Z,22.40
2022-09-04T13:12:28.220Z,22.50
2022-09-04T13:15:01.364Z,22.60
2022-09-04T13:17:49.684Z,22.60
2022-09-04T13:20:35.218Z,22.70
2022-09-04T13:23:21.580Z,23.60
2022-09-04T13:25:53.410Z,22.80
2022-09-04T13:28:26.733Z,22.80
2022-09-04T13:31:00.362Z,22.80
2022-09-04T13:33:40.040Z,22.60
2022-09-04T13:36:30.677Z,23.00
2022-09-04T13:39:16.901Z,23.00
2022-09-04T13:41:43.996Z,23.10
2022-09-04T13:44:20.345Z,23.00
2022-09-04T13:46:53.530Z,23.00
2022-09-04T13:49:34.057Z,23.00
2022-09-04T13:52:04.288Z,24.50
2022-09-04T13:54:36.141Z,22.90
2022-09-04T13:57:10.470Z,22.90
2022-09-04T13:59:38.366Z,22.80
2022-09-04T14:02:08.679Z,22.80
2022-09-04T14:04:39.900Z,22.80
2022-09-04T14:07:10.697Z,22.80
2022-09-04T14:09:40.622Z,22.70
2022-09-04T14:12:10.567Z,22.70
2022-09-04T14:14:48.784Z,22.70
2022-09-04T14:17:27.079Z,22.70
2022-09-04T14:20:10.470Z,22.70
2022-09-04T14:22:44.995Z,22.70
2022-09-04T14:25:32.432Z,22.60
2022-09-04T14:28:13.223Z,22.70
2022-09-04T14:30:55.827Z,22.70
2022-09-04T14:33:28.953Z,22.70
2022-09-04T14:36:12.653Z,22.80
2022-09-04T14:38:44.649Z,22.90
2022-09-04T14:41:35.996Z,23.00
2022-09-04T14:44:06.948Z,23.00
2022-09-04T14:46:51.232Z,23.00
2022-09-04T14:49:22.660Z,23.10
2022-09-04T14:51:52.857Z,23.10
2022-09-04T14:54:25.477Z,23.10
2022-09-04T14:56:55.060Z,23.10
2022-09-04T14:59:26.830Z,23.10
2022-09-04T15:02:00.233Z,23.20
2022-09-04T15:04:47.615Z,23.20
2022-09-04T15:07:25.099Z,23.30
2022-09-04T15:09:54.740Z,23.40
2022-09-04T15:12:27.018Z,23.20
2022-09-04T15:15:04.085Z,23.10
2022-09-04T15:17:31.607Z,22.90
2022-09-04T15:20:15.179Z,22.80
2022-09-04T15:22:53.432Z,22.60
2022-09-04T15:25:57.766Z,22.30
2022-09-04T15:28:34.579Z,22.40
2022-09-04T15:31:13.279Z,22.40
2022-09-04T15:33:42.984Z,22.60
2022-09-04T15:36:14.492Z,22.30
2022-09-04T15:38:46.897Z,22.40
2022-09-04T15:41:21.613Z,22.40
2022-09-04T15:43:55.641Z,22.40
2022-09-04T15:46:22.844Z,22.50
2022-09-04T15:49:16.896Z,22.50
2022-09-04T15:51:52.100Z,22.50
2022-09-04T15:54:27.233Z,22.50
2022-09-04T15:56:59.963Z,22.50
2022-09-04T15:59:29.860Z,22.50
2022-09-04T16:02:03.995Z,22.40
2022-09-04T16:04:43.317Z,23.70
2022-09-04T16:07:19.684Z,22.40
2022-09-04T16:09:46.896Z,22.50
2022-09-04T16:12:17.029Z,22.50
2022-09-04T16:14:46.444Z,22.50
2022-09-04T16:17:20.280Z,22.40
2022-09-04T16:20:07.328Z,22.40
2022-09-04T16:22:37.682Z,22.40
2022-09-04T16:25:09.303Z,22.30
2022-09-04T16:27:45.494Z,22.30
2022-09-04T16:30:26.518Z,22.30
2022-09-04T16:32:53.786Z,22.30
2022-09-04T16:35:22.575Z,22.20
2022-09-04T16:38:12.606Z,22.20
2022-09-04T16:40:45.321Z,22.10
2022-09-04T16:43:21.595Z,22.00
2022-09-04T16:45:51.221Z,22.00
2022-09-04T16:48:34.626Z,21.90
2022-09-04T16:51:41.305Z,21.90
2022-09-04T16:54:12.439Z,21.90
2022-09-04T16:56:50.644Z,22.00
2022-09-04T16:59:27.987Z,22.00
2022-09-04T17:02:03.657Z,22.00
2022-09-04T17:04:39.997Z,21.50
2022-09-04T17:07:08.690Z,22.00
2022-09-04T17:09:45.141Z,22.10
2022-09-04T17:12:41.728Z,22.00
2022-09-04T17:15:27.244Z,22.10
2022-09-04T17:17:54.833Z,22.10
2022-09-04T17:21:34.893Z,22.10
2022-09-04T17:29:01.370Z,22.10
2022-09-04T17:29:11.129Z,22.10
2022-09-04T17:29:34.894Z,22.00
2022-09-04T17:31:53.972Z,21.90
2022-09-04T17:40:41.685Z,21.90
2022-09-04T17:40:48.032Z,21.90
2022-09-04T17:40:53.609Z,21.80
2022-09-04T17:43:22.868Z,21.80
2022-09-04T17:45:59.569Z,21.80
2022-09-04T17:48:27.758Z,21.70
2022-09-04T17:50:57.284Z,21.70
2022-09-04T17:53:34.063Z,21.70
2022-09-04T17:56:06.811Z,21.70
2022-09-04T17:58:42.215Z,21.60
2022-09-04T18:01:15.200Z,21.60
2022-09-04T18:04:19.879Z,21.60
2022-09-04T18:06:51.494Z,21.60
2022-09-04T18:09:26.991Z,21.50
2022-09-04T18:12:00.912Z,21.50
2022-09-04T18:14:32.470Z,21.60
2022-09-04T18:17:12.780Z,21.40
2022-09-04T18:19:40.556Z,21.30
2022-09-04T18:22:26.891Z,21.20
2022-09-04T18:25:15.743Z,21.20
2022-09-04T18:28:06.147Z,21.20
2022-09-04T18:37:12.235Z,21.10
2022-09-04T18:37:22.648Z,21.00
2022-09-04T18:37:23.851Z,21.00
2022-09-04T18:39:50.422Z,21.00
2022-09-04T18:50:21.059Z,21.00
2022-09-04T18:50:22.178Z,20.90
2022-09-04T18:50:28.448Z,20.90
2022-09-04T18:51:21.222Z,20.80
2022-09-04T18:53:55.423Z,20.80
2022-09-04T18:56:30.521Z,20.80
2022-09-04T18:58:57.642Z,20.80
2022-09-04T19:01:27.666Z,20.80
2022-09-04T19:03:55.035Z,20.80
2022-09-04T19:06:36.699Z,20.70
2022-09-04T19:09:14.834Z,20.90
2022-09-04T19:11:53.075Z,20.70
2022-09-04T19:14:22.172Z,20.70
2022-09-04T19:16:58.977Z,20.60
2022-09-04T19:19:46.587Z,20.60
2022-09-04T19:22:18.619Z,20.60
2022-09-04T19:24:56.625Z,20.60
2022-09-04T19:27:28.154Z,20.60
2022-09-04T19:29:55.559Z,20.50
2022-09-04T19:32:36.530Z,20.60
2022-09-04T19:35:03.675Z,21.60
2022-09-04T19:41:42.950Z,20.60
2022-09-04T19:46:13.996Z,20.50
2022-09-04T19:46:14.313Z,20.50
2022-09-04T19:46:28.073Z,20.50
2022-09-04T19:53:21.541Z,20.50
2022-09-04T19:53:24.220Z,20.40
2022-09-04T19:54:59.906Z,20.40
2022-09-04T19:57:39.421Z,20.40
2022-09-04T20:00:38.358Z,20.30
2022-09-04T20:03:14.119Z,20.30
2022-09-04T20:06:21.368Z,20.30
2022-09-04T20:08:55.076Z,20.20
2022-09-04T20:11:34.621Z,20.20
2022-09-04T20:14:09.154Z,20.20
2022-09-04T20:16:48.272Z,20.10
2022-09-04T20:19:27.646Z,20.10
2022-09-04T20:21:55.407Z,20.00
2022-09-04T20:24:25.999Z,20.10
2022-09-04T20:27:20.576Z,20.10
2022-09-04T20:29:54.528Z,20.10
2022-09-04T20:32:22.603Z,20.10
2022-09-04T20:34:55.719Z,20.10
2022-09-04T20:37:23.593Z,20.00
2022-09-04T20:40:04.506Z,20.10
2022-09-04T20:42:38.338Z,20.10
2022-09-04T20:48:13.919Z,20.00
2022-09-04T20:52:55.258Z,20.00
2022-09-04T20:53:05.235Z,20.00
2022-09-04T20:54:06.240Z,20.00
2022-09-04T21:00:05.844Z,20.00
2022-09-04T21:03:10.112Z,20.00
2022-09-04T21:03:20.862Z,19.90
2022-09-04T21:05:46.259Z,19.90
2022-09-04T21:08:13.661Z,19.90
2022-09-04T21:10:53.177Z,19.90
2022-09-04T21:13:39.554Z,19.90
2022-09-04T21:16:25.702Z,19.80
2022-09-04T21:19:27.596Z,19.60
2022-09-04T21:22:05.203Z,19.80
2022-09-04T21:25:00.170Z,19.80
2022-09-04T21:27:45.936Z,19.80
2022-09-04T21:30:14.736Z,19.80
2022-09-04T21:32:44.695Z,19.80
2022-09-04T21:35:25.753Z,19.80
2022-09-04T21:38:22.392Z,19.80
2022-09-04T21:40:52.836Z,19.80
2022-09-04T21:43:23.497Z,19.80
2022-09-04T21:46:00.273Z,19.60
2022-09-04T21:48:31.687Z,19.80
2022-09-04T21:50:59.604Z,19.80
2022-09-04T21:53:36.224Z,19.70
2022-09-04T22:01:52.483Z,19.80
2022-09-04T22:02:35.690Z,19.70
2022-09-04T22:02:37.645Z,19.80
2022-09-04T22:05:18.923Z,19.70
2022-09-04T22:12:04.996Z,19.70
2022-09-04T22:13:38.065Z,19.70
2022-09-04T22:14:03.103Z,19.70
2022-09-04T22:16:49.232Z,19.70
2022-09-04T22:19:17.061Z,19.60
2022-09-04T22:22:03.981Z,19.60
2022-09-04T22:24:41.252Z,19.60
2022-09-04T22:27:27.430Z,19.70
2022-09-04T22:30:08.449Z,19.70
2022-09-04T22:32:50.334Z,19.60
2022-09-04T22:35:17.423Z,19.60
2022-09-04T22:37:50.751Z,19.60
2022-09-04T22:40:18.316Z,20.10
2022-09-04T22:43:08.503Z,19.60
2022-09-04T22:45:35.614Z,19.60
2022-09-04T22:48:08.773Z,19.70
2022-09-04T22:50:54.918Z,19.60
2022-09-04T22:53:31.357Z,19.70
2022-09-04T22:56:23.543Z,19.70
2022-09-04T22:59:25.844Z,19.70
2022-09-04T23:02:14.051Z,19.70
2022-09-04T23:04:45.523Z,19.60
2022-09-04T23:11:42.032Z,19.70
2022-09-04T23:13:57.713Z,19.60
2022-09-04T23:14:01.393Z,19.60
2022-09-04T23:16:28.130Z,19.60
2022-09-04T23:25:04.748Z,19.60
2022-09-04T23:26:39.476Z,19.60
2022-09-04T23:26:49.398Z,19.60
2022-09-04T23:28:27.219Z,19.80
2022-09-04T23:31:08.600Z,19.60
2022-09-04T23:33:44.734Z,19.50
2022-09-04T23:36:15.343Z,19.60
2022-09-04T23:38:53.710Z,19.50
2022-09-04T23:41:47.411Z,19.50
2022-09-04T23:44:38.754Z,19.50
2022-09-04T23:47:48.178Z,19.50
2022-09-04T23:50:17.714Z,19.50
2022-09-04T23:53:03.731Z,19.50
2022-09-04T23:55:49.847Z,19.50
2022-09-04T23:58:51.925Z,19.50
